createdAt,value
2023-08-11T00:02:00.220Z,2.00
2023-08-11T00:04:27.125Z,2.30
2023-08-11T00:06:54.353Z,1.80
2023-08-11T00:09:21.415Z,2.40
2023-08-11T00:11:48.224Z,2.80
2023-08-11T00:14:15.076Z,2.30
2023-08-11T00:16:41.992Z,2.30
2023-08-11T00:19:09.063Z,2.30
2023-08-11T00:21:35.929Z,2.00
2023-08-11T00:24:02.812Z,2.20
2023-08-11T00:26:31.783Z,2.50
2023-08-11T00:28:58.677Z,2.60
2023-08-11T00:31:25.676Z,2.30
2023-08-11T00:33:53.046Z,2.40
2023-08-11T00:36:20.696Z,2.20
2023-08-11T00:38:48.825Z,2.20
2023-08-11T00:41:17.442Z,1.90
2023-08-11T00:43:44.447Z,2.40
2023-08-11T00:46:12.217Z,2.40
2023-08-11T00:48:39.764Z,2.40
2023-08-11T00:51:06.863Z,2.40
2023-08-11T00:53:34.592Z,2.20
2023-08-11T00:56:02.767Z,1.80
2023-08-11T00:58:29.775Z,2.10
2023-08-11T01:00:57.548Z,2.00
2023-08-11T01:03:25.119Z,2.10
2023-08-11T01:06:39.287Z,2.30
2023-08-11T01:09:12.797Z,2.10
2023-08-11T01:11:48.778Z,2.40
2023-08-11T01:14:18.900Z,2.20
2023-08-11T01:16:46.615Z,2.50
2023-08-11T01:19:13.521Z,2.10
2023-08-11T01:21:40.653Z,2.50
2023-08-11T01:24:08.043Z,2.30
2023-08-11T01:26:35.680Z,2.40
2023-08-11T01:29:02.832Z,2.70
2023-08-11T01:31:29.792Z,2.60
2023-08-11T01:33:56.690Z,2.30
2023-08-11T01:36:23.551Z,2.10
2023-08-11T01:38:50.437Z,2.40
2023-08-11T01:41:17.494Z,2.30
2023-08-11T01:43:44.371Z,2.40
2023-08-11T01:46:11.190Z,2.80
2023-08-11T01:48:38.558Z,2.10
2023-08-11T01:51:05.416Z,2.10
2023-08-11T01:53:32.259Z,2.00
2023-08-11T01:55:59.139Z,2.10
2023-08-11T01:58:26.125Z,2.00
2023-08-11T02:00:53.148Z,2.00
2023-08-11T02:03:20.174Z,1.90
2023-08-11T02:05:47.132Z,2.30
2023-08-11T02:08:18.710Z,2.70
2023-08-11T02:10:46.788Z,2.00
2023-08-11T02:13:15.247Z,2.30
2023-08-11T02:15:42.096Z,2.10
2023-08-11T02:18:09.078Z,2.30
2023-08-11T02:20:36.082Z,1.80
2023-08-11T02:23:02.976Z,2.00
2023-08-11T02:25:30.137Z,2.30
2023-08-11T02:27:57.714Z,2.30
2023-08-11T02:30:25.212Z,2.30
2023-08-11T02:32:52.244Z,2.50
2023-08-11T02:35:19.229Z,2.40
2023-08-11T02:37:46.178Z,2.60
2023-08-11T02:40:13.212Z,2.70
2023-08-11T02:42:44.252Z,2.20
2023-08-11T02:45:12.391Z,2.20
2023-08-11T02:47:42.556Z,2.50
2023-08-11T02:50:10.181Z,2.60
2023-08-11T02:52:37.621Z,1.90
2023-08-11T02:55:06.382Z,2.10
2023-08-11T02:57:34.192Z,2.30
2023-08-11T03:00:01.431Z,2.60
2023-08-11T03:02:28.592Z,2.50
2023-08-11T03:04:55.556Z,2.50
2023-08-11T03:07:24.150Z,2.60
2023-08-11T03:09:51.186Z,2.60
2023-08-11T03:12:18.069Z,2.60
2023-08-11T03:14:44.955Z,2.60
2023-08-11T03:17:14.836Z,2.40
2023-08-11T03:19:42.164Z,2.50
2023-08-11T03:22:09.490Z,2.50
2023-08-11T03:24:36.641Z,2.60
2023-08-11T03:27:03.915Z,2.30
2023-08-11T03:29:32.098Z,2.10
2023-08-11T03:31:59.335Z,2.40
2023-08-11T03:34:27.623Z,2.80
2023-08-11T03:36:54.734Z,2.60
2023-08-11T03:39:21.572Z,2.40
2023-08-11T03:41:48.560Z,2.50
2023-08-11T03:44:15.809Z,2.70
2023-08-11T03:46:42.788Z,2.70
2023-08-11T03:49:09.805Z,2.70
2023-08-11T03:51:36.730Z,2.70
2023-08-11T03:54:03.921Z,2.50
2023-08-11T03:56:32.922Z,2.20
2023-08-11T03:58:59.728Z,2.40
2023-08-11T04:01:27.020Z,2.40
2023-08-11T04:03:53.890Z,2.30
2023-08-11T04:06:20.979Z,2.70
2023-08-11T04:08:47.844Z,2.80
2023-08-11T04:11:14.696Z,2.70
2023-08-11T04:13:41.513Z,2.60
2023-08-11T04:16:10.838Z,2.80
2023-08-11T04:18:37.718Z,2.90
2023-08-11T04:21:04.580Z,2.60
2023-08-11T04:23:31.603Z,2.80
2023-08-11T04:25:58.547Z,2.20
2023-08-11T04:28:26.528Z,1.90
2023-08-11T04:30:54.742Z,2.30
2023-08-11T04:33:22.496Z,2.70
2023-08-11T04:35:50.906Z,2.70
2023-08-11T04:38:18.827Z,2.50
2023-08-11T04:40:45.766Z,2.40
2023-08-11T04:43:12.799Z,2.90
2023-08-11T04:45:41.381Z,2.80
2023-08-11T04:48:08.771Z,2.60
2023-08-11T04:50:36.896Z,2.70
2023-08-11T04:53:04.234Z,3.50
2023-08-11T04:55:32.423Z,6.80
2023-08-11T04:58:01.784Z,3.50
2023-08-11T05:00:28.902Z,3.00
2023-08-11T05:02:56.033Z,2.30
2023-08-11T05:05:22.966Z,2.10
2023-08-11T05:07:49.868Z,2.10
2023-08-11T05:10:16.782Z,2.20
2023-08-11T05:12:43.887Z,2.30
2023-08-11T05:15:10.997Z,2.00
2023-08-11T05:17:37.894Z,2.10
2023-08-11T05:20:09.269Z,1.90
2023-08-11T05:22:36.666Z,2.10
2023-08-11T05:25:04.286Z,2.30
2023-08-11T05:27:31.490Z,2.80
2023-08-11T05:29:58.765Z,5.00
2023-08-11T05:32:25.694Z,5.50
2023-08-11T05:34:53.612Z,3.20
2023-08-11T05:37:20.457Z,2.50
2023-08-11T05:39:47.326Z,2.00
2023-08-11T05:42:14.242Z,1.90
2023-08-11T05:44:41.243Z,2.20
2023-08-11T05:47:09.539Z,2.20
2023-08-11T05:49:36.611Z,2.40
2023-08-11T05:52:03.627Z,1.80
2023-08-11T05:54:30.863Z,2.10
2023-08-11T05:56:58.937Z,2.00
2023-08-11T05:59:27.016Z,2.30
2023-08-11T06:01:54.029Z,2.50
2023-08-11T06:04:20.869Z,2.60
2023-08-11T06:06:47.742Z,2.40
2023-08-11T06:09:15.039Z,2.30
2023-08-11T06:11:41.852Z,2.70
2023-08-11T06:14:08.738Z,2.30
2023-08-11T06:16:35.711Z,2.40
2023-08-11T06:19:02.821Z,2.40
2023-08-11T06:21:29.848Z,2.20
2023-08-11T06:23:56.741Z,2.30
2023-08-11T06:26:23.928Z,2.20
2023-08-11T06:28:50.930Z,2.70
2023-08-11T06:31:20.933Z,2.40
2023-08-11T06:33:48.117Z,2.90
2023-08-11T06:36:15.007Z,3.00
2023-08-11T06:38:41.925Z,2.40
2023-08-11T06:41:08.738Z,2.60
2023-08-11T06:43:35.658Z,2.30
2023-08-11T06:46:02.665Z,2.50
2023-08-11T06:48:29.655Z,2.10
2023-08-11T06:50:58.118Z,2.20
2023-08-11T06:53:25.239Z,2.20
2023-08-11T06:55:52.415Z,2.30
2023-08-11T06:58:19.338Z,2.40
2023-08-11T07:00:46.190Z,2.20
2023-08-11T07:03:13.093Z,2.10
2023-08-11T07:07:40.706Z,2.10
2023-08-11T07:10:08.352Z,2.20
2023-08-11T07:12:35.585Z,2.30
2023-08-11T07:15:02.556Z,2.10
2023-08-11T07:17:29.888Z,2.30
2023-08-11T07:19:56.740Z,2.00
2023-08-11T07:22:23.653Z,2.00
2023-08-11T07:24:50.630Z,2.20
2023-08-11T07:27:19.479Z,1.80
2023-08-11T07:29:47.071Z,2.00
2023-08-11T07:32:14.080Z,1.80
2023-08-11T07:34:42.023Z,2.50
2023-08-11T07:37:09.653Z,2.30
2023-08-11T07:39:37.337Z,1.90
2023-08-11T07:42:04.554Z,2.20
2023-08-11T07:44:32.082Z,2.10
2023-08-11T07:46:59.123Z,2.20
2023-08-11T07:49:26.377Z,1.70
2023-08-11T07:51:53.535Z,2.10
2023-08-11T07:54:20.719Z,2.10
2023-08-11T07:56:48.180Z,1.80
2023-08-11T07:59:15.253Z,1.90
2023-08-11T08:01:43.125Z,2.10
2023-08-11T08:04:11.949Z,2.10
2023-08-11T08:06:46.602Z,1.90
2023-08-11T08:09:15.308Z,2.30
2023-08-11T08:11:46.666Z,2.30
2023-08-11T08:14:13.902Z,1.90
2023-08-11T08:16:45.710Z,1.90
2023-08-11T08:19:13.057Z,1.90
2023-08-11T08:21:40.331Z,1.90
2023-08-11T08:24:09.231Z,2.10
2023-08-11T08:26:36.677Z,1.80
2023-08-11T08:29:04.757Z,2.30
2023-08-11T08:31:31.699Z,2.00
2023-08-11T08:33:59.268Z,2.30
2023-08-11T08:36:26.797Z,1.70
2023-08-11T08:38:53.907Z,2.60
2023-08-11T08:41:21.971Z,2.40
2023-08-11T08:43:49.158Z,1.40
2023-08-11T08:46:16.193Z,1.90
2023-08-11T08:48:58.612Z,1.50
2023-08-11T08:51:25.679Z,1.40
2023-08-11T08:53:52.807Z,1.40
2023-08-11T08:56:20.189Z,2.30
2023-08-11T08:58:47.351Z,2.60
2023-08-11T09:01:14.745Z,2.10
2023-08-11T09:03:42.009Z,3.10
2023-08-11T09:06:09.317Z,2.50
2023-08-11T09:08:40.303Z,2.40
2023-08-11T09:11:07.688Z,1.70
2023-08-11T09:13:34.837Z,1.30
2023-08-11T09:16:02.256Z,1.20
2023-08-11T09:18:30.032Z,1.30
2023-08-11T09:20:57.172Z,1.60
2023-08-11T09:23:26.413Z,2.10
2023-08-11T09:25:56.082Z,1.90
2023-08-11T09:28:23.164Z,2.50
2023-08-11T09:30:51.913Z,2.90
2023-08-11T09:33:19.602Z,2.30
2023-08-11T09:35:46.476Z,1.70
2023-08-11T09:38:13.465Z,2.00
2023-08-11T09:40:42.653Z,2.30
2023-08-11T09:43:11.687Z,2.20
2023-08-11T09:45:38.648Z,1.60
2023-08-11T09:48:05.914Z,1.60
2023-08-11T09:50:35.250Z,1.60
2023-08-11T09:53:02.088Z,2.00
2023-08-11T09:55:29.974Z,2.90
2023-08-11T09:57:57.484Z,1.70
2023-08-11T10:00:24.404Z,1.70
2023-08-11T10:03:12.880Z,2.00
2023-08-11T10:05:44.095Z,1.60
2023-08-11T10:08:12.958Z,2.20
2023-08-11T10:10:39.955Z,2.10
2023-08-11T10:13:08.735Z,1.60
2023-08-11T10:15:35.807Z,1.70
2023-08-11T10:18:03.395Z,1.70
2023-08-11T10:20:30.452Z,1.50
2023-08-11T10:22:57.743Z,2.00
2023-08-11T10:25:25.194Z,2.40
2023-08-11T10:27:52.723Z,2.40
2023-08-11T10:30:19.608Z,1.10
2023-08-11T10:32:46.594Z,1.40
2023-08-11T10:35:20.335Z,1.60
2023-08-11T10:37:57.917Z,2.10
2023-08-11T10:40:24.898Z,2.20
2023-08-11T10:42:51.909Z,2.10
2023-08-11T10:45:20.022Z,2.40
2023-08-11T10:50:21.152Z,1.70
2023-08-11T10:52:48.456Z,5.20
2023-08-11T10:55:15.641Z,4.20
2023-08-11T10:57:42.871Z,2.30
2023-08-11T11:00:11.322Z,1.60
2023-08-11T11:02:38.208Z,1.50
2023-08-11T11:05:09.127Z,1.20
2023-08-11T11:07:39.584Z,2.40
2023-08-11T11:10:07.102Z,2.20
2023-08-11T11:12:34.296Z,2.60
2023-08-11T11:15:01.461Z,2.00
2023-08-11T11:17:28.359Z,4.10
2023-08-11T11:19:55.384Z,4.00
2023-08-11T11:22:24.510Z,3.70
2023-08-11T11:24:52.047Z,2.10
2023-08-11T11:27:19.105Z,1.90
2023-08-11T11:29:46.013Z,1.80
2023-08-11T11:32:12.963Z,1.70
2023-08-11T11:34:41.179Z,2.40
2023-08-11T11:37:08.007Z,2.30
2023-08-11T11:39:34.944Z,2.30
2023-08-11T11:42:07.975Z,2.40
2023-08-11T11:44:35.453Z,1.50
2023-08-11T11:47:03.634Z,1.40
2023-08-11T11:49:32.493Z,1.40
2023-08-11T11:52:01.697Z,1.30
2023-08-11T11:54:30.065Z,1.10
2023-08-11T11:57:04.628Z,1.40
2023-08-11T11:59:33.380Z,1.70
2023-08-11T12:02:02.015Z,2.10
2023-08-11T12:04:29.485Z,2.60
2023-08-11T12:06:56.596Z,1.50
2023-08-11T12:09:23.901Z,1.50
2023-08-11T12:11:54.681Z,2.00
2023-08-11T12:14:21.539Z,1.90
2023-08-11T12:16:48.441Z,2.30
2023-08-11T12:19:15.963Z,2.40
2023-08-11T12:21:43.777Z,1.50
2023-08-11T12:24:13.837Z,1.60
2023-08-11T12:26:40.639Z,2.00
2023-08-11T12:29:09.224Z,2.60
2023-08-11T12:31:36.131Z,2.30
2023-08-11T12:34:03.074Z,1.60
2023-08-11T12:36:30.096Z,1.80
2023-08-11T12:38:57.066Z,1.60
2023-08-11T12:41:24.656Z,1.50
2023-08-11T12:43:51.522Z,1.30
2023-08-11T12:46:18.456Z,1.40
2023-08-11T12:48:45.365Z,1.40
2023-08-11T12:51:12.167Z,1.30
2023-08-11T12:53:39.053Z,1.20
2023-08-11T12:56:05.911Z,1.30
2023-08-11T12:58:32.781Z,1.30
2023-08-11T13:01:00.514Z,1.40
2023-08-11T13:03:27.425Z,1.40
2023-08-11T13:05:54.252Z,1.20
2023-08-11T13:08:21.345Z,1.20
2023-08-11T13:10:48.325Z,1.40
2023-08-11T13:13:15.219Z,1.50
2023-08-11T13:15:42.193Z,1.30
2023-08-11T13:18:09.227Z,1.20
2023-08-11T13:20:36.223Z,1.40
2023-08-11T13:23:03.284Z,1.40
2023-08-11T13:25:30.231Z,1.20
2023-08-11T13:27:57.082Z,1.40
2023-08-11T13:30:25.754Z,1.00
2023-08-11T13:32:52.772Z,1.00
2023-08-11T13:35:19.828Z,1.20
2023-08-11T13:37:46.725Z,1.20
2023-08-11T13:40:13.985Z,1.20
2023-08-11T13:42:43.341Z,1.40
2023-08-11T13:45:11.076Z,1.20
2023-08-11T13:47:37.965Z,1.10
2023-08-11T13:50:05.122Z,1.30
2023-08-11T13:52:32.162Z,1.20
2023-08-11T13:55:02.942Z,1.00
2023-08-11T13:57:29.892Z,1.30
2023-08-11T13:59:58.873Z,1.30
2023-08-11T14:02:27.499Z,1.50
2023-08-11T14:04:54.530Z,1.30
2023-08-11T14:07:30.571Z,1.40
2023-08-11T14:09:59.763Z,1.40
2023-08-11T14:12:26.694Z,1.30
2023-08-11T14:14:53.614Z,1.40
2023-08-11T14:17:20.452Z,1.30
2023-08-11T14:19:47.385Z,1.20
2023-08-11T14:22:14.177Z,1.20
2023-08-11T14:24:41.124Z,1.70
2023-08-11T14:27:08.153Z,1.20
2023-08-11T14:29:35.069Z,1.20
2023-08-11T14:32:18.196Z,1.00
2023-08-11T14:34:48.691Z,1.50
2023-08-11T14:37:17.662Z,1.40
2023-08-11T14:39:45.873Z,1.20
2023-08-11T14:42:14.939Z,1.10
2023-08-11T14:44:42.378Z,1.10
2023-08-11T14:47:14.055Z,1.30
2023-08-11T14:49:42.017Z,1.20
2023-08-11T14:52:09.119Z,1.00
2023-08-11T14:54:36.280Z,1.20
2023-08-11T14:57:03.895Z,1.20
2023-08-11T14:59:30.908Z,1.10
2023-08-11T15:01:57.928Z,1.30
2023-08-11T15:04:24.811Z,1.00
2023-08-11T15:06:51.631Z,1.20
2023-08-11T15:09:18.589Z,1.40
2023-08-11T15:11:45.475Z,1.40
2023-08-11T15:14:12.447Z,1.90
2023-08-11T15:16:39.296Z,1.80
2023-08-11T15:19:06.255Z,1.60
2023-08-11T15:21:33.800Z,1.50
2023-08-11T15:24:00.669Z,1.50
2023-08-11T15:26:27.517Z,1.60
2023-08-11T15:28:54.435Z,1.80
2023-08-11T15:31:21.405Z,1.50
2023-08-11T15:33:48.411Z,1.40
2023-08-11T15:36:15.291Z,1.60
2023-08-11T15:38:42.093Z,1.20
2023-08-11T15:41:08.943Z,1.70
2023-08-11T15:43:35.791Z,1.70
2023-08-11T15:46:04.501Z,1.50
2023-08-11T15:48:33.780Z,1.40
2023-08-11T15:51:00.741Z,1.40
2023-08-11T15:53:27.632Z,1.60
2023-08-11T15:55:54.598Z,1.30
2023-08-11T15:58:21.418Z,1.70
2023-08-11T16:00:49.384Z,1.80
2023-08-11T16:05:43.938Z,1.40
2023-08-11T16:08:11.049Z,1.40
2023-08-11T16:10:38.017Z,1.50
2023-08-11T16:13:04.973Z,1.40
2023-08-11T16:15:32.260Z,1.30
2023-08-11T16:17:59.275Z,1.50
2023-08-11T16:20:26.097Z,1.80
2023-08-11T16:22:53.228Z,1.50
2023-08-11T16:25:20.355Z,1.50
2023-08-11T16:27:47.222Z,1.50
2023-08-11T16:30:14.179Z,1.30
2023-08-11T16:32:41.161Z,1.70
2023-08-11T16:35:09.140Z,1.40
2023-08-11T16:40:03.958Z,1.90
2023-08-11T16:42:31.169Z,1.60
2023-08-11T16:44:58.004Z,1.80
2023-08-11T16:47:27.845Z,1.60
2023-08-11T16:49:54.924Z,1.90
2023-08-11T16:52:22.354Z,1.50
2023-08-11T16:54:49.264Z,2.00
2023-08-11T16:57:16.050Z,1.60
2023-08-11T16:59:42.888Z,1.60
2023-08-11T17:02:10.150Z,2.30
2023-08-11T17:04:37.344Z,2.00
2023-08-11T17:07:04.233Z,2.10
2023-08-11T17:09:31.218Z,1.70
2023-08-11T17:11:58.197Z,2.10
2023-08-11T17:14:25.111Z,2.00
2023-08-11T17:16:52.037Z,2.20
2023-08-11T17:19:18.805Z,1.90
2023-08-11T17:21:45.714Z,2.40
2023-08-11T17:24:12.648Z,1.90
2023-08-11T17:26:40.313Z,2.70
2023-08-11T17:29:07.757Z,2.30
2023-08-11T17:31:35.532Z,1.90
2023-08-11T17:34:02.559Z,2.10
2023-08-11T17:36:30.255Z,1.80
2023-08-11T17:38:58.782Z,1.70
2023-08-11T17:41:25.827Z,1.90
2023-08-11T17:43:52.752Z,1.70
2023-08-11T17:46:20.446Z,1.70
2023-08-11T17:48:47.281Z,1.50
2023-08-11T17:51:14.334Z,2.00
2023-08-11T17:53:41.681Z,1.70
2023-08-11T17:56:09.375Z,1.70
2023-08-11T17:58:36.364Z,1.70
2023-08-11T18:01:03.312Z,1.60
2023-08-11T18:03:30.364Z,1.70
2023-08-11T18:05:57.290Z,1.80
2023-08-11T18:08:24.168Z,1.70
2023-08-11T18:10:51.081Z,1.80
2023-08-11T18:13:18.096Z,1.80
2023-08-11T18:15:46.532Z,1.80
2023-08-11T18:20:40.471Z,1.70
2023-08-11T18:23:07.415Z,2.00
2023-08-11T18:25:36.322Z,1.50
2023-08-11T18:28:03.447Z,1.70
2023-08-11T18:30:30.684Z,1.80
2023-08-11T18:32:57.846Z,1.60
2023-08-11T18:35:24.694Z,1.60
2023-08-11T18:37:51.665Z,1.80
2023-08-11T18:40:18.499Z,1.40
2023-08-11T18:42:45.292Z,1.80
2023-08-11T18:45:12.154Z,1.80
2023-08-11T18:47:38.981Z,2.10
2023-08-11T18:50:06.662Z,1.70
2023-08-11T18:52:33.685Z,1.70
2023-08-11T18:55:00.511Z,1.80
2023-08-11T18:57:27.333Z,1.70
2023-08-11T18:59:54.213Z,1.90
2023-08-11T19:02:22.895Z,1.90
2023-08-11T19:04:51.139Z,1.50
2023-08-11T19:07:20.035Z,1.80
2023-08-11T19:09:47.158Z,1.70
2023-08-11T19:12:14.186Z,1.90
2023-08-11T19:14:41.243Z,1.70
2023-08-11T19:17:08.146Z,1.80
2023-08-11T19:19:34.939Z,2.00
2023-08-11T19:22:01.825Z,1.90
2023-08-11T19:24:28.761Z,1.90
2023-08-11T19:26:55.602Z,2.50
2023-08-11T19:29:23.213Z,1.80
2023-08-11T19:31:50.227Z,2.00
2023-08-11T19:34:17.398Z,2.00
2023-08-11T19:36:44.523Z,1.90
2023-08-11T19:39:11.464Z,1.80
2023-08-11T19:41:38.311Z,1.90
2023-08-11T19:44:05.740Z,2.30
2023-08-11T19:46:32.690Z,1.90
2023-08-11T19:48:59.737Z,2.10
2023-08-11T19:51:27.019Z,1.80
2023-08-11T19:53:54.824Z,2.20
2023-08-11T19:56:21.592Z,2.10
2023-08-11T19:58:48.458Z,2.00
2023-08-11T20:01:15.332Z,2.10
2023-08-11T20:03:42.236Z,1.60
2023-08-11T20:06:09.130Z,1.80
2023-08-11T20:08:35.982Z,1.80
2023-08-11T20:11:03.811Z,2.30
2023-08-11T20:13:30.740Z,1.80
2023-08-11T20:16:01.930Z,1.70
2023-08-11T20:18:29.025Z,1.70
2023-08-11T20:20:56.251Z,1.90
2023-08-11T20:23:23.183Z,1.70
2023-08-11T20:25:49.984Z,1.90
2023-08-11T20:28:17.470Z,1.90
2023-08-11T20:30:44.618Z,1.90
2023-08-11T20:33:11.579Z,2.00
2023-08-11T20:35:38.492Z,1.70
2023-08-11T20:38:05.384Z,2.00
2023-08-11T20:40:33.714Z,2.00
2023-08-11T20:43:01.146Z,1.80
2023-08-11T20:45:31.025Z,2.10
2023-08-11T20:47:58.610Z,2.00
2023-08-11T20:50:25.517Z,2.30
2023-08-11T20:52:52.417Z,1.80
2023-08-11T20:55:19.246Z,1.80
2023-08-11T20:57:48.280Z,2.10
2023-08-11T21:00:15.636Z,1.90
2023-08-11T21:02:42.581Z,2.00
2023-08-11T21:05:09.744Z,1.90
2023-08-11T21:07:36.652Z,2.10
2023-08-11T21:10:04.045Z,2.20
2023-08-11T21:12:31.115Z,1.70
2023-08-11T21:14:57.896Z,1.50
2023-08-11T21:17:24.721Z,2.10
2023-08-11T21:19:51.644Z,2.20
2023-08-11T21:22:18.563Z,1.80
2023-08-11T21:24:45.398Z,1.80
2023-08-11T21:27:12.671Z,2.20
2023-08-11T21:29:39.861Z,2.10
2023-08-11T21:32:07.026Z,1.90
2023-08-11T21:34:33.913Z,2.30
2023-08-11T21:37:02.507Z,2.00
2023-08-11T21:39:29.690Z,2.60
2023-08-11T21:41:56.616Z,2.40
2023-08-11T21:44:23.529Z,2.30
2023-08-11T21:46:50.504Z,2.20
2023-08-11T21:49:17.465Z,2.20
2023-08-11T21:51:44.298Z,2.20
2023-08-11T21:54:11.122Z,2.20
2023-08-11T21:56:38.270Z,2.70
2023-08-11T21:59:05.111Z,2.20
2023-08-11T22:01:31.952Z,2.30
2023-08-11T22:03:59.728Z,2.30
2023-08-11T22:06:26.612Z,2.70
2023-08-11T22:08:53.538Z,2.60
2023-08-11T22:11:35.457Z,2.40
2023-08-11T22:14:03.245Z,2.60
2023-08-11T22:16:30.273Z,2.20
2023-08-11T22:18:57.139Z,2.20
2023-08-11T22:21:24.030Z,2.50
2023-08-11T22:23:50.930Z,2.50
2023-08-11T22:26:18.761Z,2.60
2023-08-11T22:28:45.623Z,2.50
2023-08-11T22:31:12.683Z,2.30
2023-08-11T22:33:39.626Z,2.40
2023-08-11T22:36:06.746Z,2.60
2023-08-11T22:38:33.723Z,2.70
2023-08-11T22:41:00.814Z,2.30
2023-08-11T22:43:30.507Z,1.80
2023-08-11T22:45:57.511Z,2.20
2023-08-11T22:48:24.533Z,2.10
2023-08-11T22:50:51.395Z,2.10
2023-08-11T22:53:18.610Z,2.10
2023-08-11T22:55:45.585Z,2.40
2023-08-11T22:58:12.649Z,2.50
2023-08-11T23:00:39.665Z,2.50
2023-08-11T23:03:07.055Z,2.50
2023-08-11T23:05:34.111Z,2.70
2023-08-11T23:08:01.566Z,2.30
2023-08-11T23:10:28.757Z,2.60
2023-08-11T23:12:55.704Z,2.20
2023-08-11T23:15:22.582Z,2.80
2023-08-11T23:17:49.513Z,2.30
2023-08-11T23:20:16.456Z,3.10
2023-08-11T23:22:43.358Z,2.70
2023-08-11T23:25:10.654Z,2.40
2023-08-11T23:27:37.764Z,2.60
2023-08-11T23:30:05.400Z,2.60
2023-08-11T23:32:33.673Z,2.70
2023-08-11T23:35:00.745Z,2.40
2023-08-11T23:37:30.260Z,2.50
2023-08-11T23:39:57.323Z,2.50
2023-08-11T23:42:24.361Z,2.60
2023-08-11T23:44:51.413Z,2.10
2023-08-11T23:47:18.228Z,2.80
2023-08-11T23:49:45.159Z,2.40
2023-08-11T23:52:12.582Z,2.60
2023-08-11T23:54:39.450Z,2.60
2023-08-11T23:57:06.354Z,2.80
2023-08-11T23:59:34.130Z,2.40
